Rossendale, United Kingdom
Current Conditions -  °F | °C
As of 11:50 PM on Saturday 25 Oct 2014 (Local Time) from EGCC Reporting Station
Overcast Overcast  
Wind Chill: 52°   Ceiling: 3600
Heat Index: 52°   Visibility: 6mi
Dew Point: 48°   Wind: 14mph
Humidity: 88%   Direction: 220°SW
Pressure: 30"   Gusts: NA
Location:  53.68°N, 2.33°W
Report Text: EGCC 252250Z AUTO 22012KT 9999 SCT031 BKN036 OVC044 11/09 Q1016
Loading
Personal Weather Stations






























Interactive Weather Map
Tropical Storm Tracking
New forecast layout! Learn more

10-Day Weather Forecast

Advertisements
Track Severe Weather on mobile